Time;durP1;ratioP1;P1;durP2;ratioP2;P2;SDS_P1;SDS_P2;PMS_P1;PMS_P2;Temp;Humidity;BMP_temperature;BMP_pressure;BME280_temperature;BME280_humidity;BME280_pressure;Samples;Min_cycle;Max_cycle;Signal;HPM_P1;HPM_P2
2024/03/09 00:02:24;;;;;;;;;;;23.10;56.10;;;;;;5068959;28;19921;-44
2024/03/09 00:04:50;;;;;;;;;;;23.10;56.10;;;;;;5070165;28;19913;-43
2024/03/09 00:07:16;;;;;;;;;;;23.10;56.10;;;;;;5068986;28;19954;-45
2024/03/09 00:09:41;;;;;;;;;;;23.00;56.10;;;;;;5067257;28;20438;-43
2024/03/09 00:12:11;;;;;;;;;;;23.00;56.10;;;;;;5072551;28;19987;-46
2024/03/09 00:14:38;;;;;;;;;;;23.00;56.20;;;;;;5072503;28;19916;-44
2024/03/09 00:17:07;;;;;;;;;;;23.10;56.30;;;;;;5069140;28;20014;-42
2024/03/09 00:19:34;;;;;;;;;;;23.10;56.30;;;;;;5075864;28;19931;-45
2024/03/09 00:22:00;;;;;;;;;;;23.10;56.30;;;;;;5078066;28;19917;-43
2024/03/09 00:24:27;;;;;;;;;;;23.10;56.90;;;;;;5070427;28;19917;-43
2024/03/09 00:26:53;;;;;;;;;;;23.10;56.30;;;;;;5075356;28;19913;-42
2024/03/09 00:29:19;;;;;;;;;;;23.00;56.30;;;;;;5071460;28;19923;-44
2024/03/09 00:31:46;;;;;;;;;;;23.00;56.30;;;;;;5074127;28;19916;-45
2024/03/09 00:34:12;;;;;;;;;;;23.00;56.30;;;;;;5068399;28;19912;-44
2024/03/09 00:36:38;;;;;;;;;;;23.00;56.30;;;;;;5071318;28;20346;-44
2024/03/09 00:39:05;;;;;;;;;;;23.00;56.30;;;;;;5074746;28;20442;-43
2024/03/09 00:41:33;;;;;;;;;;;23.00;56.30;;;;;;5066687;28;19920;-42
2024/03/09 00:44:00;;;;;;;;;;;23.00;56.50;;;;;;5071856;28;19916;-43
2024/03/09 00:46:27;;;;;;;;;;;23.00;56.50;;;;;;5068378;28;19962;-43
2024/03/09 00:48:53;;;;;;;;;;;23.00;56.50;;;;;;5076070;28;20011;-46
2024/03/09 00:51:24;;;;;;;;;;;23.00;56.60;;;;;;5069379;28;19919;-42
2024/03/09 00:53:50;;;;;;;;;;;23.00;56.60;;;;;;5069423;28;19912;-44
2024/03/09 00:56:17;;;;;;;;;;;23.00;56.60;;;;;;5078621;28;19912;-45
2024/03/09 00:58:46;;;;;;;;;;;23.00;56.60;;;;;;5065478;28;19912;-43
2024/03/09 01:01:14;;;;;;;;;;;23.00;56.60;;;;;;5080486;28;19948;-43
2024/03/09 01:03:40;;;;;;;;;;;23.00;56.60;;;;;;5075802;28;19966;-42
2024/03/09 01:06:06;;;;;;;;;;;22.90;56.50;;;;;;5073052;28;20399;-44
2024/03/09 01:08:34;;;;;;;;;;;22.90;56.70;;;;;;5075195;28;19979;-43
2024/03/09 01:11:01;;;;;;;;;;;23.00;56.80;;;;;;5084786;28;19916;-43
2024/03/09 01:13:27;;;;;;;;;;;23.00;56.80;;;;;;5077003;28;19939;-42
2024/03/09 01:15:55;;;;;;;;;;;23.00;56.90;;;;;;5073695;28;19935;-43
2024/03/09 01:18:22;;;;;;;;;;;23.00;56.90;;;;;;5073166;28;19915;-42
2024/03/09 01:20:48;;;;;;;;;;;23.00;56.90;;;;;;5077548;28;19913;-42
2024/03/09 01:23:15;;;;;;;;;;;23.00;56.90;;;;;;5082668;28;19938;-44
2024/03/09 01:25:42;;;;;;;;;;;22.90;56.80;;;;;;5071390;28;20396;-44
2024/03/09 01:28:10;;;;;;;;;;;22.90;56.80;;;;;;5074159;28;20365;-42
2024/03/09 01:30:42;;;;;;;;;;;22.90;56.80;;;;;;5083344;28;19919;-44
2024/03/09 01:33:09;;;;;;;;;;;22.90;57.00;;;;;;5078174;28;19912;-43
2024/03/09 01:35:35;;;;;;;;;;;23.00;57.10;;;;;;5075966;28;19912;-43
2024/03/09 01:38:02;;;;;;;;;;;23.00;57.10;;;;;;5083443;28;19999;-44
2024/03/09 01:40:37;;;;;;;;;;;23.00;57.10;;;;;;5082712;28;21079;-44
2024/03/09 01:43:07;;;;;;;;;;;23.00;57.10;;;;;;5083715;28;19920;-43
2024/03/09 01:45:36;;;;;;;;;;;23.00;57.20;;;;;;5081998;28;19912;-45
2024/03/09 01:48:03;;;;;;;;;;;23.00;57.10;;;;;;5078234;28;20006;-46
2024/03/09 01:50:32;;;;;;;;;;;23.00;57.10;;;;;;5082786;28;19913;-48
2024/03/09 01:52:59;;;;;;;;;;;22.90;57.10;;;;;;5084001;28;19920;-45
2024/03/09 01:55:28;;;;;;;;;;;22.90;57.10;;;;;;5075450;28;19935;-44
2024/03/09 01:57:57;;;;;;;;;;;22.90;57.10;;;;;;5084821;28;19943;-42
2024/03/09 02:00:26;;;;;;;;;;;22.90;57.10;;;;;;5081289;28;19908;-44
2024/03/09 02:02:54;;;;;;;;;;;22.90;57.20;;;;;;5083542;28;19920;-47
2024/03/09 02:05:24;;;;;;;;;;;22.90;57.30;;;;;;5084244;28;19913;-45
2024/03/09 02:07:52;;;;;;;;;;;22.90;57.30;;;;;;5083295;28;20654;-45
2024/03/09 02:10:19;;;;;;;;;;;23.00;57.40;;;;;;5082159;28;19919;-44
2024/03/09 02:12:48;;;;;;;;;;;23.00;57.50;;;;;;5083250;28;19913;-43
2024/03/09 02:15:17;;;;;;;;;;;23.00;57.40;;;;;;5082970;28;20183;-46
2024/03/09 02:17:47;;;;;;;;;;;22.90;57.40;;;;;;5082523;28;19909;-44
2024/03/09 02:20:14;;;;;;;;;;;22.90;57.50;;;;;;5076726;28;19913;-44
2024/03/09 02:22:41;;;;;;;;;;;22.90;57.50;;;;;;5081164;28;19928;-45
2024/03/09 02:25:07;;;;;;;;;;;22.90;57.50;;;;;;5072914;28;19916;-43
2024/03/09 02:27:35;;;;;;;;;;;22.90;57.50;;;;;;5079929;28;19979;-44
2024/03/09 02:30:03;;;;;;;;;;;22.90;57.40;;;;;;5081090;28;19920;-43
2024/03/09 02:32:30;;;;;;;;;;;22.90;57.40;;;;;;5066926;28;19924;-42
2024/03/09 02:34:56;;;;;;;;;;;22.90;57.50;;;;;;5076712;28;19908;-45
2024/03/09 02:37:24;;;;;;;;;;;22.90;57.60;;;;;;5076318;28;19928;-47
2024/03/09 02:39:51;;;;;;;;;;;22.90;57.60;;;;;;5076966;28;20010;-43
2024/03/09 02:42:18;;;;;;;;;;;22.90;57.70;;;;;;5082058;28;19927;-42
2024/03/09 02:44:45;;;;;;;;;;;22.90;58.00;;;;;;5075394;28;20403;-41
2024/03/09 02:47:11;;;;;;;;;;;22.90;58.20;;;;;;5075143;28;19940;-41
2024/03/09 02:49:38;;;;;;;;;;;22.90;58.60;;;;;;5071947;28;20615;-42
2024/03/09 02:52:05;;;;;;;;;;;22.90;59.00;;;;;;5081933;28;19912;-41
2024/03/09 02:54:37;;;;;;;;;;;22.90;59.60;;;;;;5076221;28;19909;-41
2024/03/09 02:57:06;;;;;;;;;;;22.90;60.30;;;;;;5079515;28;19980;-45
2024/03/09 02:59:33;;;;;;;;;;;22.90;60.40;;;;;;5076108;28;19908;-43
2024/03/09 03:02:13;;;;;;;;;;;22.90;61.40;;;;;;5072637;28;19920;-42
2024/03/09 03:04:40;;;;;;;;;;;22.90;61.80;;;;;;5079004;28;19917;-41
2024/03/09 03:07:09;;;;;;;;;;;22.90;61.90;;;;;;5082225;28;19947;-46
2024/03/09 03:09:35;;;;;;;;;;;22.90;62.30;;;;;;5074189;28;19908;-45
2024/03/09 03:12:02;;;;;;;;;;;22.90;62.20;;;;;;5082274;28;19908;-46
2024/03/09 03:14:32;;;;;;;;;;;22.90;62.00;;;;;;5081412;28;19919;-44
2024/03/09 03:16:59;;;;;;;;;;;22.90;62.00;;;;;;5082172;28;19995;-44
2024/03/09 03:19:28;;;;;;;;;;;22.90;61.90;;;;;;5081567;28;19919;-46
2024/03/09 03:21:55;;;;;;;;;;;22.90;61.60;;;;;;5075058;28;19916;-45
2024/03/09 03:24:25;;;;;;;;;;;23.00;61.10;;;;;;5081064;28;20388;-43
2024/03/09 03:26:51;;;;;;;;;;;23.00;60.90;;;;;;5081645;28;20391;-42
2024/03/09 03:29:20;;;;;;;;;;;23.00;61.00;;;;;;5082523;28;19957;-44
2024/03/09 03:31:47;;;;;;;;;;;22.90;60.90;;;;;;5070850;28;19923;-46
2024/03/09 03:34:14;;;;;;;;;;;23.00;60.70;;;;;;5074853;28;19919;-44
2024/03/09 03:36:42;;;;;;;;;;;22.90;60.70;;;;;;5081325;28;20464;-41
2024/03/09 03:39:12;;;;;;;;;;;22.90;60.70;;;;;;5082058;28;19927;-45
2024/03/09 03:41:41;;;;;;;;;;;22.90;60.60;;;;;;5072175;28;19924;-46
2024/03/09 03:44:09;;;;;;;;;;;22.90;60.50;;;;;;5072000;28;19912;-44
2024/03/09 03:46:39;;;;;;;;;;;22.90;60.50;;;;;;5079035;28;19923;-43
2024/03/09 03:49:05;;;;;;;;;;;22.90;60.60;;;;;;5069217;28;19945;-44
2024/03/09 03:51:32;;;;;;;;;;;23.00;60.10;;;;;;5081038;28;20379;-45
2024/03/09 03:53:59;;;;;;;;;;;23.00;60.30;;;;;;5075081;28;19912;-45
2024/03/09 03:56:26;;;;;;;;;;;23.00;60.30;;;;;;5074297;28;19962;-43
2024/03/09 03:58:53;;;;;;;;;;;22.90;60.10;;;;;;5070207;28;19989;-46
2024/03/09 04:01:21;;;;;;;;;;;22.90;60.10;;;;;;5081157;28;19924;-46
2024/03/09 04:03:48;;;;;;;;;;;22.90;60.10;;;;;;5075614;28;20591;-46
2024/03/09 04:06:16;;;;;;;;;;;22.90;60.20;;;;;;5081637;28;19912;-45
2024/03/09 04:08:42;;;;;;;;;;;22.90;60.10;;;;;;5078702;28;20093;-48
2024/03/09 04:11:15;;;;;;;;;;;22.90;60.00;;;;;;5077625;28;19938;-43
2024/03/09 04:13:41;;;;;;;;;;;22.80;59.90;;;;;;5073295;28;19912;-44
2024/03/09 04:16:08;;;;;;;;;;;22.90;60.20;;;;;;5074412;28;19986;-44
2024/03/09 04:18:36;;;;;;;;;;;22.90;60.00;;;;;;5080754;28;19913;-43
2024/03/09 04:21:03;;;;;;;;;;;22.90;59.90;;;;;;5064175;28;19920;-44
2024/03/09 04:23:30;;;;;;;;;;;22.90;59.90;;;;;;5066684;28;19920;-44
2024/03/09 04:25:56;;;;;;;;;;;22.90;60.00;;;;;;5070465;28;20006;-43
2024/03/09 04:28:27;;;;;;;;;;;22.90;59.90;;;;;;5081140;28;19912;-46
2024/03/09 04:30:54;;;;;;;;;;;22.90;59.90;;;;;;5073738;28;19912;-42
2024/03/09 04:33:21;;;;;;;;;;;22.90;59.90;;;;;;5066979;28;19920;-44
2024/03/09 04:35:47;;;;;;;;;;;22.80;59.80;;;;;;5080820;28;19912;-44
2024/03/09 04:38:15;;;;;;;;;;;22.80;59.80;;;;;;5074395;28;19947;-43
2024/03/09 04:40:46;;;;;;;;;;;22.80;60.00;;;;;;5080114;28;20344;-42
2024/03/09 04:43:15;;;;;;;;;;;22.90;59.90;;;;;;5080598;28;19917;-42
2024/03/09 04:45:41;;;;;;;;;;;22.90;59.80;;;;;;5078350;28;19923;-44
2024/03/09 04:48:09;;;;;;;;;;;22.90;59.90;;;;;;5074945;28;19919;-41
2024/03/09 04:50:38;;;;;;;;;;;22.90;59.90;;;;;;5078321;28;19908;-41
2024/03/09 04:53:08;;;;;;;;;;;22.90;59.90;;;;;;5079360;28;19913;-43
2024/03/09 04:55:35;;;;;;;;;;;22.90;59.80;;;;;;5069368;28;19923;-41
2024/03/09 04:58:13;;;;;;;;;;;22.90;59.70;;;;;;5074011;28;20261;-40
2024/03/09 05:00:40;;;;;;;;;;;22.80;59.70;;;;;;5074035;28;19916;-41
2024/03/09 05:03:07;;;;;;;;;;;22.80;59.60;;;;;;5079128;28;19920;-42
2024/03/09 05:05:34;;;;;;;;;;;22.80;59.60;;;;;;5067255;28;19920;-43
2024/03/09 05:08:02;;;;;;;;;;;22.90;59.80;;;;;;5069111;28;19995;-41
2024/03/09 05:10:31;;;;;;;;;;;22.90;59.70;;;;;;5071100;28;19917;-41
2024/03/09 05:12:58;;;;;;;;;;;22.90;59.70;;;;;;5063149;28;19913;-42
2024/03/09 05:15:25;;;;;;;;;;;22.90;59.80;;;;;;5069410;28;19942;-45
2024/03/09 05:17:52;;;;;;;;;;;22.90;60.40;;;;;;5063213;28;19912;-42
2024/03/09 05:20:22;;;;;;;;;;;22.80;59.60;;;;;;5087437;28;19970;-41
2024/03/09 05:22:49;;;;;;;;;;;22.80;59.60;;;;;;5073376;28;19942;-43
2024/03/09 05:25:17;;;;;;;;;;;22.80;59.60;;;;;;5065452;28;19909;-40
2024/03/09 05:27:43;;;;;;;;;;;22.80;59.50;;;;;;5070592;28;20355;-43
2024/03/09 05:30:14;;;;;;;;;;;22.80;59.50;;;;;;5061944;28;19924;-43
2024/03/09 05:32:41;;;;;;;;;;;22.80;59.60;;;;;;5071077;28;19912;-48
2024/03/09 05:35:12;;;;;;;;;;;22.90;59.60;;;;;;5084164;28;19944;-47
2024/03/09 05:37:39;;;;;;;;;;;22.90;59.60;;;;;;5079250;28;19919;-43
2024/03/09 05:40:09;;;;;;;;;;;22.90;59.70;;;;;;5073829;28;19951;-42
2024/03/09 05:42:38;;;;;;;;;;;22.90;59.70;;;;;;5064272;28;20011;-46
2024/03/09 05:45:09;;;;;;;;;;;22.80;59.60;;;;;;5069078;28;19912;-44
2024/03/09 05:47:36;;;;;;;;;;;22.80;59.50;;;;;;5074754;28;19967;-44
2024/03/09 05:50:03;;;;;;;;;;;22.80;59.50;;;;;;5069694;28;19912;-46
2024/03/09 05:52:29;;;;;;;;;;;22.80;59.50;;;;;;5082957;28;19912;-43
2024/03/09 05:54:55;;;;;;;;;;;22.80;59.50;;;;;;5070096;28;19915;-45
2024/03/09 05:57:22;;;;;;;;;;;22.80;59.50;;;;;;5066160;28;19934;-45
2024/03/09 05:59:49;;;;;;;;;;;22.80;59.70;;;;;;5066891;28;19909;-45
2024/03/09 06:02:15;;;;;;;;;;;22.90;59.60;;;;;;5074288;28;19920;-44
2024/03/09 06:04:41;;;;;;;;;;;22.80;59.50;;;;;;5083909;28;19915;-44
2024/03/09 06:07:07;;;;;;;;;;;22.80;59.50;;;;;;5086852;28;19912;-42
2024/03/09 06:09:34;;;;;;;;;;;22.80;59.50;;;;;;5067594;28;19913;-40
2024/03/09 06:12:00;;;;;;;;;;;22.80;59.50;;;;;;5067586;28;19913;-42
2024/03/09 06:14:26;;;;;;;;;;;22.80;59.50;;;;;;5069646;28;19924;-45
2024/03/09 06:16:52;;;;;;;;;;;22.80;59.40;;;;;;5066201;28;19998;-42
2024/03/09 06:19:19;;;;;;;;;;;22.80;59.50;;;;;;5066634;28;20427;-40
2024/03/09 06:21:45;;;;;;;;;;;22.70;59.40;;;;;;5073371;28;19943;-43
2024/03/09 06:24:11;;;;;;;;;;;22.80;60.10;;;;;;5078060;28;19912;-39
2024/03/09 06:26:37;;;;;;;;;;;22.80;59.50;;;;;;5080765;28;19951;-41
2024/03/09 06:29:03;;;;;;;;;;;22.80;59.50;;;;;;5077899;28;19922;-40
2024/03/09 06:31:29;;;;;;;;;;;22.80;59.50;;;;;;5079489;28;19976;-39
2024/03/09 06:33:56;;;;;;;;;;;22.80;59.50;;;;;;5081922;28;19908;-41
2024/03/09 06:36:24;;;;;;;;;;;22.80;59.50;;;;;;5082486;28;20428;-41
2024/03/09 06:38:50;;;;;;;;;;;22.80;59.40;;;;;;5076489;28;19913;-44
2024/03/09 06:41:17;;;;;;;;;;;22.80;59.40;;;;;;5075381;28;20015;-45
2024/03/09 06:43:43;;;;;;;;;;;22.70;59.40;;;;;;5068431;28;19916;-45
2024/03/09 06:46:10;;;;;;;;;;;22.80;59.50;;;;;;5076037;28;19916;-42
2024/03/09 06:48:36;;;;;;;;;;;22.80;59.40;;;;;;5070568;28;19924;-41
2024/03/09 06:51:03;;;;;;;;;;;22.80;59.40;;;;;;5076289;28;19920;-43
2024/03/09 06:53:30;;;;;;;;;;;22.80;59.40;;;;;;5073000;28;19922;-43
2024/03/09 06:56:03;;;;;;;;;;;22.80;59.40;;;;;;5073921;28;19916;-42
2024/03/09 06:58:30;;;;;;;;;;;22.80;59.40;;;;;;5073013;28;19979;-45
2024/03/09 07:00:57;;;;;;;;;;;22.80;59.40;;;;;;5076289;28;19973;-42
2024/03/09 07:03:23;;;;;;;;;;;22.70;59.30;;;;;;5074278;28;19975;-43
2024/03/09 07:05:49;;;;;;;;;;;22.70;59.30;;;;;;5075344;28;19912;-43
2024/03/09 07:08:16;;;;;;;;;;;22.80;59.50;;;;;;5078215;28;19908;-42
2024/03/09 07:10:42;;;;;;;;;;;22.80;59.30;;;;;;5076892;28;19912;-44
2024/03/09 07:13:09;;;;;;;;;;;22.80;59.30;;;;;;5073842;28;20000;-44
2024/03/09 07:15:37;;;;;;;;;;;22.80;59.30;;;;;;5071848;28;19912;-46
2024/03/09 07:18:03;;;;;;;;;;;22.80;59.30;;;;;;5075342;28;20396;-43
2024/03/09 07:20:32;;;;;;;;;;;22.80;59.30;;;;;;5069508;28;19935;-43
2024/03/09 07:22:58;;;;;;;;;;;22.80;59.30;;;;;;5070908;28;19923;-43
2024/03/09 07:25:24;;;;;;;;;;;22.70;59.20;;;;;;5075215;28;19912;-42
2024/03/09 07:27:54;;;;;;;;;;;22.70;59.20;;;;;;5075192;28;21220;-46
2024/03/09 07:30:21;;;;;;;;;;;22.70;59.30;;;;;;5071233;28;19939;-41
2024/03/09 07:32:49;;;;;;;;;;;22.80;59.30;;;;;;5075415;28;20773;-42
2024/03/09 07:35:16;;;;;;;;;;;22.80;59.20;;;;;;5070848;28;19912;-43
2024/03/09 07:37:46;;;;;;;;;;;22.80;59.30;;;;;;5065696;28;19920;-42
2024/03/09 07:40:12;;;;;;;;;;;22.80;59.20;;;;;;5076501;28;19975;-45
2024/03/09 07:42:38;;;;;;;;;;;22.80;59.30;;;;;;5072804;28;19920;-42
2024/03/09 07:45:07;;;;;;;;;;;22.70;59.20;;;;;;5075287;28;19912;-42
2024/03/09 07:47:34;;;;;;;;;;;22.70;59.20;;;;;;5074084;28;19919;-43
2024/03/09 07:50:00;;;;;;;;;;;22.70;59.20;;;;;;5074148;28;20000;-42
2024/03/09 07:52:26;;;;;;;;;;;22.70;59.30;;;;;;5073157;28;21350;-41
2024/03/09 07:54:52;;;;;;;;;;;22.80;59.20;;;;;;5078276;28;19916;-44
2024/03/09 07:57:18;;;;;;;;;;;22.80;59.30;;;;;;5074318;28;19908;-41
2024/03/09 07:59:45;;;;;;;;;;;22.80;59.30;;;;;;5073118;28;19912;-42
2024/03/09 08:02:12;;;;;;;;;;;22.80;59.30;;;;;;5078331;28;19920;-42
2024/03/09 08:04:39;;;;;;;;;;;22.80;59.30;;;;;;5075428;28;19923;-42
2024/03/09 08:07:05;;;;;;;;;;;22.70;59.20;;;;;;5073705;28;19916;-40
2024/03/09 08:09:31;;;;;;;;;;;22.70;59.20;;;;;;5070362;28;19916;-41
2024/03/09 08:11:57;;;;;;;;;;;22.70;59.20;;;;;;5076193;28;19908;-40
2024/03/09 08:14:27;;;;;;;;;;;22.80;59.30;;;;;;5071675;28;19931;-43
2024/03/09 08:16:53;;;;;;;;;;;22.80;59.20;;;;;;5076582;28;19912;-41
2024/03/09 08:19:20;;;;;;;;;;;22.80;59.20;;;;;;5075882;28;19984;-41
2024/03/09 08:21:47;;;;;;;;;;;22.80;59.20;;;;;;5071725;28;19920;-42
2024/03/09 08:24:15;;;;;;;;;;;22.70;59.20;;;;;;5073046;28;19920;-40
2024/03/09 08:26:41;;;;;;;;;;;22.80;59.20;;;;;;5072560;28;19919;-40
2024/03/09 08:29:08;;;;;;;;;;;22.70;59.10;;;;;;5071570;28;19909;-40
2024/03/09 08:31:34;;;;;;;;;;;22.70;59.10;;;;;;5072736;28;19913;-41
2024/03/09 08:34:02;;;;;;;;;;;22.70;59.10;;;;;;5073599;28;19917;-39
2024/03/09 08:36:28;;;;;;;;;;;22.80;59.20;;;;;;5070211;28;19913;-39
2024/03/09 08:38:54;;;;;;;;;;;22.80;59.10;;;;;;5073863;28;20334;-39
2024/03/09 08:41:22;;;;;;;;;;;22.80;59.20;;;;;;5072240;28;19929;-39
2024/03/09 08:43:48;;;;;;;;;;;22.80;59.20;;;;;;5074725;28;20092;-39
2024/03/09 08:46:13;;;;;;;;;;;22.70;59.10;;;;;;5077913;28;20576;-39
2024/03/09 08:48:39;;;;;;;;;;;22.70;59.10;;;;;;5080119;28;20011;-43
2024/03/09 08:51:07;;;;;;;;;;;22.70;59.10;;;;;;5081503;28;19912;-41
2024/03/09 08:53:33;;;;;;;;;;;22.70;59.10;;;;;;5077011;28;19939;-45
2024/03/09 08:55:59;;;;;;;;;;;22.70;59.10;;;;;;5071528;28;19920;-41
2024/03/09 08:58:25;;;;;;;;;;;22.80;59.10;;;;;;5071050;28;19904;-41
2024/03/09 09:00:50;;;;;;;;;;;22.80;59.10;;;;;;5080689;28;19913;-45
2024/03/09 09:03:17;;;;;;;;;;;22.70;59.10;;;;;;5074217;28;19916;-44
2024/03/09 09:05:43;;;;;;;;;;;22.70;59.00;;;;;;5079608;28;19978;-41
2024/03/09 09:08:17;;;;;;;;;;;22.70;59.00;;;;;;5080923;28;19908;-41
2024/03/09 09:10:43;;;;;;;;;;;22.70;59.00;;;;;;5079950;28;19909;-42
2024/03/09 09:13:09;;;;;;;;;;;22.70;59.00;;;;;;5066348;28;20353;-41
2024/03/09 09:15:34;;;;;;;;;;;22.70;59.10;;;;;;5078040;28;19919;-40
2024/03/09 09:18:00;;;;;;;;;;;22.70;59.00;;;;;;5070238;28;19908;-40
2024/03/09 09:20:27;;;;;;;;;;;22.80;59.00;;;;;;5062540;28;19908;-40
2024/03/09 09:22:55;;;;;;;;;;;22.80;59.10;;;;;;5077588;28;20285;-42
2024/03/09 09:25:25;;;;;;;;;;;22.70;59.00;;;;;;5077518;28;19905;-41
2024/03/09 09:27:53;;;;;;;;;;;22.70;59.00;;;;;;5084447;28;19943;-41
2024/03/09 09:30:19;;;;;;;;;;;22.70;59.00;;;;;;5084927;28;19932;-40
2024/03/09 09:32:45;;;;;;;;;;;22.70;59.00;;;;;;5077056;28;19909;-41
2024/03/09 09:35:11;;;;;;;;;;;22.70;59.00;;;;;;5084994;28;20355;-43
2024/03/09 09:37:37;;;;;;;;;;;22.70;59.00;;;;;;5076031;28;20499;-41
2024/03/09 09:40:04;;;;;;;;;;;22.80;59.00;;;;;;5085057;28;19912;-42
2024/03/09 09:42:33;;;;;;;;;;;22.80;59.00;;;;;;5083426;28;19941;-40
2024/03/09 09:44:59;;;;;;;;;;;22.70;59.00;;;;;;5084772;28;19912;-41
2024/03/09 09:47:25;;;;;;;;;;;22.70;59.00;;;;;;5076140;28;19943;-42
2024/03/09 09:49:51;;;;;;;;;;;22.70;59.00;;;;;;5083359;28;19938;-39
2024/03/09 09:52:17;;;;;;;;;;;22.70;59.00;;;;;;5079739;28;19913;-40
2024/03/09 09:54:43;;;;;;;;;;;22.70;59.00;;;;;;5073357;28;20863;-40
2024/03/09 09:57:10;;;;;;;;;;;22.70;59.00;;;;;;5082809;28;19912;-40
2024/03/09 09:59:36;;;;;;;;;;;22.70;59.00;;;;;;5069052;28;19919;-40
2024/03/09 10:02:03;;;;;;;;;;;22.80;58.90;;;;;;5080076;28;19921;-40
2024/03/09 10:04:29;;;;;;;;;;;22.70;58.90;;;;;;5081386;28;19916;-40
2024/03/09 10:07:05;;;;;;;;;;;22.70;58.90;;;;;;5083826;28;19931;-40
2024/03/09 10:09:30;;;;;;;;;;;22.70;58.90;;;;;;5063065;28;19916;-40
2024/03/09 10:11:56;;;;;;;;;;;22.70;58.90;;;;;;5086699;28;19913;-40
2024/03/09 10:14:27;;;;;;;;;;;22.70;58.90;;;;;;5073109;28;19913;-41
2024/03/09 10:16:53;;;;;;;;;;;22.70;58.90;;;;;;5068805;28;19916;-40
2024/03/09 10:19:20;;;;;;;;;;;22.70;58.90;;;;;;5092256;28;19969;-40
2024/03/09 10:21:49;;;;;;;;;;;22.70;58.90;;;;;;5080621;28;19925;-40
2024/03/09 10:24:16;;;;;;;;;;;22.70;58.90;;;;;;5078753;28;19916;-42
2024/03/09 10:26:44;;;;;;;;;;;22.70;58.90;;;;;;5082932;28;20022;-39
2024/03/09 10:29:13;;;;;;;;;;;22.70;58.90;;;;;;5073313;28;19950;-39
2024/03/09 10:31:42;;;;;;;;;;;22.70;59.00;;;;;;5081493;28;19912;-40
2024/03/09 10:34:08;;;;;;;;;;;22.70;58.90;;;;;;5072238;28;19912;-39
2024/03/09 10:36:37;;;;;;;;;;;22.70;58.90;;;;;;5084678;28;19912;-39
2024/03/09 10:39:03;;;;;;;;;;;22.70;59.00;;;;;;5080314;28;19984;-39
2024/03/09 10:41:29;;;;;;;;;;;22.70;58.90;;;;;;5077043;28;19968;-39
2024/03/09 10:43:55;;;;;;;;;;;22.70;58.90;;;;;;5077496;28;19983;-40
2024/03/09 10:46:23;;;;;;;;;;;22.70;58.90;;;;;;5075445;28;19911;-40
2024/03/09 10:48:51;;;;;;;;;;;22.70;58.90;;;;;;5084354;28;19979;-41
2024/03/09 10:51:30;;;;;;;;;;;22.70;58.90;;;;;;5078720;28;19917;-40
2024/03/09 10:54:01;;;;;;;;;;;22.70;59.40;;;;;;5079829;28;19975;-39
2024/03/09 10:56:27;;;;;;;;;;;22.70;58.90;;;;;;5072718;28;20361;-39
2024/03/09 10:58:53;;;;;;;;;;;22.70;58.90;;;;;;5077791;28;19912;-40
2024/03/09 11:01:22;;;;;;;;;;;22.70;58.90;;;;;;5084068;28;19908;-44
2024/03/09 11:03:51;;;;;;;;;;;22.70;58.80;;;;;;5074763;28;19924;-39
2024/03/09 11:06:21;;;;;;;;;;;22.70;58.90;;;;;;5073523;28;19931;-41
2024/03/09 11:08:48;;;;;;;;;;;22.70;58.90;;;;;;5073992;28;19920;-39
2024/03/09 11:11:21;;;;;;;;;;;22.70;58.90;;;;;;5079669;28;19915;-39
2024/03/09 11:13:56;;;;;;;;;;;22.70;58.90;;;;;;5066538;28;19915;-40
2024/03/09 11:16:24;;;;;;;;;;;22.70;58.90;;;;;;5079474;28;19926;-40
2024/03/09 11:18:55;;;;;;;;;;;22.60;58.90;;;;;;5074641;28;20188;-40
2024/03/09 11:21:34;;;;;;;;;;;22.70;59.00;;;;;;5066219;28;19951;-41
2024/03/09 11:24:07;;;;;;;;;;;22.70;58.90;;;;;;5072070;28;19918;-40
2024/03/09 11:26:38;;;;;;;;;;;22.70;58.90;;;;;;5073313;28;19908;-40
2024/03/09 11:29:04;;;;;;;;;;;22.70;58.90;;;;;;5079778;28;19931;-41
2024/03/09 11:31:30;;;;;;;;;;;22.70;58.90;;;;;;5073867;28;20384;-40
2024/03/09 11:34:05;;;;;;;;;;;22.70;58.90;;;;;;5069838;28;19908;-42
2024/03/09 11:36:38;;;;;;;;;;;22.70;58.90;;;;;;5074929;28;19908;-41
2024/03/09 11:39:04;;;;;;;;;;;22.70;59.00;;;;;;5077576;28;19913;-41
2024/03/09 11:41:31;;;;;;;;;;;22.70;58.90;;;;;;5067124;28;19932;-41
2024/03/09 11:43:59;;;;;;;;;;;22.70;58.90;;;;;;5072370;28;19958;-40
2024/03/09 11:46:28;;;;;;;;;;;22.70;58.90;;;;;;5073775;28;19976;-40
2024/03/09 11:48:54;;;;;;;;;;;22.70;58.90;;;;;;5070658;28;19920;-41
2024/03/09 11:51:23;;;;;;;;;;;22.70;58.90;;;;;;5064850;28;19912;-41
2024/03/09 11:53:49;;;;;;;;;;;22.70;58.90;;;;;;5066042;28;20600;-39
2024/03/09 11:56:15;;;;;;;;;;;22.70;58.80;;;;;;5071307;28;19904;-39
2024/03/09 11:58:41;;;;;;;;;;;22.60;58.80;;;;;;5065003;28;19916;-39
2024/03/09 12:01:07;;;;;;;;;;;22.70;58.90;;;;;;5069800;28;20025;-39
2024/03/09 12:03:34;;;;;;;;;;;22.70;58.80;;;;;;5064573;28;19913;-39
2024/03/09 12:06:00;;;;;;;;;;;22.70;58.80;;;;;;5074788;28;19948;-39
2024/03/09 12:08:26;;;;;;;;;;;22.70;58.80;;;;;;5066882;28;20380;-39
2024/03/09 12:10:57;;;;;;;;;;;22.70;58.80;;;;;;5080178;28;19908;-39
2024/03/09 12:13:26;;;;;;;;;;;22.70;58.80;;;;;;5064079;28;19909;-40
2024/03/09 12:15:52;;;;;;;;;;;22.60;58.80;;;;;;5063728;28;19912;-39
2024/03/09 12:18:18;;;;;;;;;;;22.60;58.80;;;;;;5085071;28;19912;-41
2024/03/09 12:20:44;;;;;;;;;;;22.60;58.80;;;;;;5072499;28;19912;-39
2024/03/09 12:23:15;;;;;;;;;;;22.70;58.80;;;;;;5074840;28;20405;-39
2024/03/09 12:25:41;;;;;;;;;;;22.70;58.70;;;;;;5074865;28;20743;-42
2024/03/09 12:28:09;;;;;;;;;;;22.70;58.70;;;;;;5073911;28;19930;-39
2024/03/09 12:30:35;;;;;;;;;;;22.70;58.80;;;;;;5066327;28;20301;-40
2024/03/09 12:33:01;;;;;;;;;;;22.70;58.80;;;;;;5064551;28;19919;-40
2024/03/09 12:35:28;;;;;;;;;;;22.70;58.80;;;;;;5071538;28;20010;-40
2024/03/09 12:37:56;;;;;;;;;;;22.60;58.70;;;;;;5070014;28;19952;-40
2024/03/09 12:40:22;;;;;;;;;;;22.60;58.80;;;;;;5081624;28;19995;-39
2024/03/09 12:42:53;;;;;;;;;;;22.70;58.70;;;;;;5062988;28;19967;-41
2024/03/09 12:45:23;;;;;;;;;;;22.70;58.70;;;;;;5069031;28;19919;-40
2024/03/09 12:47:50;;;;;;;;;;;22.70;58.70;;;;;;5063320;28;20636;-39
2024/03/09 12:50:16;;;;;;;;;;;22.70;58.70;;;;;;5070730;28;19916;-43
2024/03/09 12:52:46;;;;;;;;;;;22.70;58.70;;;;;;5071733;28;19919;-42
2024/03/09 12:55:19;;;;;;;;;;;22.70;58.80;;;;;;5070330;28;19913;-40
2024/03/09 12:57:49;;;;;;;;;;;22.60;59.10;;;;;;5066949;28;19913;-39
2024/03/09 13:00:19;;;;;;;;;;;22.70;60.60;;;;;;5062094;28;20349;-40
2024/03/09 13:02:49;;;;;;;;;;;22.70;62.10;;;;;;5068710;28;20380;-40
2024/03/09 13:05:19;;;;;;;;;;;22.70;62.90;;;;;;5074119;28;20023;-40
2024/03/09 13:07:46;;;;;;;;;;;22.70;63.10;;;;;;5079017;28;20015;-38
2024/03/09 13:10:18;;;;;;;;;;;22.70;62.80;;;;;;5071355;28;19909;-38
2024/03/09 13:12:50;;;;;;;;;;;22.70;62.70;;;;;;5066324;28;19920;-37
2024/03/09 13:15:22;;;;;;;;;;;22.70;62.50;;;;;;5067269;28;19909;-40
2024/03/09 13:17:51;;;;;;;;;;;22.70;62.40;;;;;;5068662;28;19920;-38
2024/03/09 13:20:20;;;;;;;;;;;22.70;62.60;;;;;;5073828;28;19912;-38
2024/03/09 13:22:47;;;;;;;;;;;22.70;62.90;;;;;;5065561;28;19916;-37
2024/03/09 13:25:13;;;;;;;;;;;22.70;62.20;;;;;;5068449;28;19916;-39
2024/03/09 13:27:39;;;;;;;;;;;22.80;61.90;;;;;;5078589;28;19912;-39
2024/03/09 13:30:17;;;;;;;;;;;22.80;61.80;;;;;;5071946;28;19934;-38
2024/03/09 13:32:46;;;;;;;;;;;22.80;61.80;;;;;;5069912;28;19971;-39
2024/03/09 13:35:12;;;;;;;;;;;22.80;61.70;;;;;;5072099;28;19912;-38
2024/03/09 13:37:40;;;;;;;;;;;22.80;61.50;;;;;;5066164;28;20695;-39
2024/03/09 13:40:09;;;;;;;;;;;22.70;61.20;;;;;;5075600;28;19935;-40
2024/03/09 13:42:36;;;;;;;;;;;22.70;61.20;;;;;;5067337;28;19943;-38
2024/03/09 13:45:03;;;;;;;;;;;22.70;61.10;;;;;;5079152;28;19920;-41
2024/03/09 13:47:32;;;;;;;;;;;22.70;61.10;;;;;;5073568;28;19917;-38
2024/03/09 13:49:58;;;;;;;;;;;22.70;61.00;;;;;;5062310;28;19913;-39
2024/03/09 13:52:24;;;;;;;;;;;22.70;60.90;;;;;;5077082;28;19909;-40
2024/03/09 13:54:51;;;;;;;;;;;22.70;60.70;;;;;;5067484;28;19916;-39
2024/03/09 13:57:21;;;;;;;;;;;22.70;60.50;;;;;;5063135;28;19909;-40
2024/03/09 13:59:48;;;;;;;;;;;22.70;60.30;;;;;;5070428;28;19946;-40
2024/03/09 14:02:14;;;;;;;;;;;22.70;60.30;;;;;;5068163;28;19933;-39
2024/03/09 14:04:41;;;;;;;;;;;22.70;60.30;;;;;;5065678;28;19977;-39
2024/03/09 14:07:07;;;;;;;;;;;22.70;60.30;;;;;;5073138;28;19991;-38
2024/03/09 14:09:39;;;;;;;;;;;22.70;60.20;;;;;;5067426;28;19909;-38
2024/03/09 14:12:08;;;;;;;;;;;22.70;60.10;;;;;;5065820;28;20365;-38
2024/03/09 14:14:38;;;;;;;;;;;22.60;60.10;;;;;;5065700;28;20436;-38
2024/03/09 14:17:08;;;;;;;;;;;22.60;60.00;;;;;;5076008;28;19917;-40
2024/03/09 14:19:34;;;;;;;;;;;22.60;60.10;;;;;;5082612;28;19941;-39